createdAt,value
2024-02-23T00:00:28.382Z,11.34
2024-02-23T00:01:28.293Z,11.33
2024-02-23T00:02:28.356Z,11.37
2024-02-23T00:03:28.228Z,11.34
2024-02-23T00:04:28.492Z,11.37
2024-02-23T00:05:28.353Z,11.38
2024-02-23T00:06:28.279Z,11.41
2024-02-23T00:07:28.310Z,11.43
2024-02-23T00:08:28.239Z,11.48
2024-02-23T00:09:28.355Z,11.49
2024-02-23T00:10:28.251Z,11.52
2024-02-23T00:11:28.462Z,11.56
2024-02-23T00:12:28.890Z,11.59
2024-02-23T00:13:28.286Z,11.61
2024-02-23T00:14:28.290Z,11.64
2024-02-23T00:15:28.239Z,11.64
2024-02-23T00:16:28.168Z,11.61
2024-02-23T00:17:28.250Z,11.62
2024-02-23T00:18:28.207Z,11.56
2024-02-23T00:19:28.243Z,11.49
2024-02-23T00:20:28.122Z,11.49
2024-02-23T00:21:28.137Z,11.46
2024-02-23T00:22:28.784Z,11.41
2024-02-23T00:23:28.357Z,11.41
2024-02-23T00:24:28.225Z,11.40
2024-02-23T00:25:28.046Z,11.38
2024-02-23T00:26:28.192Z,11.45
2024-02-23T00:27:28.492Z,11.43
2024-02-23T00:28:27.962Z,11.38
2024-02-23T00:29:28.132Z,11.37
2024-02-23T00:30:28.900Z,11.36
2024-02-23T00:31:27.968Z,11.37
2024-02-23T00:32:28.340Z,11.41
2024-02-23T00:33:28.105Z,11.40
2024-02-23T00:34:28.009Z,11.38
2024-02-23T00:35:28.086Z,11.38
2024-02-23T00:36:27.947Z,11.40
2024-02-23T00:37:28.111Z,11.45
2024-02-23T00:38:27.939Z,11.46
2024-02-23T00:39:28.689Z,11.46
2024-02-23T00:40:27.848Z,11.45
2024-02-23T00:41:27.951Z,11.46
2024-02-23T00:42:27.899Z,11.41
2024-02-23T00:43:27.894Z,11.41
2024-02-23T00:44:28.801Z,11.41
2024-02-23T00:45:28.117Z,11.43
2024-02-23T00:46:27.898Z,11.46
2024-02-23T00:47:28.079Z,11.49
2024-02-23T00:48:27.953Z,11.54
2024-02-23T00:49:27.743Z,11.54
2024-02-23T00:50:27.831Z,11.52
2024-02-23T00:51:27.892Z,11.52
2024-02-23T00:52:27.817Z,11.51
2024-02-23T00:53:28.792Z,11.55
2024-02-23T00:54:27.834Z,11.59
2024-02-23T00:55:29.737Z,11.59
2024-02-23T00:56:35.773Z,11.64
2024-02-23T00:57:30.000Z,11.73
2024-02-23T00:58:27.886Z,11.76
2024-02-23T00:59:27.906Z,11.76
2024-02-23T01:00:27.633Z,11.79
2024-02-23T01:01:27.993Z,11.84
2024-02-23T01:02:27.641Z,11.88
2024-02-23T01:03:27.859Z,11.88
2024-02-23T01:04:27.835Z,11.93
2024-02-23T01:05:27.881Z,11.96
2024-02-23T01:06:27.710Z,11.96
2024-02-23T01:07:28.855Z,11.97
2024-02-23T01:08:28.306Z,12.03
2024-02-23T01:09:27.604Z,12.04
2024-02-23T01:10:28.014Z,12.05
2024-02-23T01:11:27.683Z,12.08
2024-02-23T01:12:27.691Z,12.07
2024-02-23T01:13:27.536Z,12.14
2024-02-23T01:14:28.408Z,12.15
2024-02-23T01:15:27.865Z,12.15
2024-02-23T01:16:28.231Z,12.11
2024-02-23T01:17:27.595Z,12.13
2024-02-23T01:18:27.510Z,12.13
2024-02-23T01:19:27.610Z,12.13
2024-02-23T01:20:27.620Z,12.10
2024-02-23T01:21:27.635Z,12.08
2024-02-23T01:22:28.305Z,12.07
2024-02-23T01:23:28.699Z,12.03
2024-02-23T01:24:27.366Z,12.00
2024-02-23T01:25:27.710Z,12.14
2024-02-23T01:26:27.491Z,12.18
2024-02-23T01:27:27.541Z,12.28
2024-02-23T01:28:27.472Z,12.28
2024-02-23T01:29:27.767Z,12.25
2024-02-23T01:30:27.359Z,12.35
2024-02-23T01:31:27.429Z,12.30
2024-02-23T01:32:27.425Z,12.26
2024-02-23T01:33:27.662Z,12.40
2024-02-23T01:34:27.415Z,12.44
2024-02-23T01:35:28.085Z,12.50
2024-02-23T01:36:27.294Z,12.46
2024-02-23T01:37:29.007Z,12.44
2024-02-23T01:38:29.186Z,12.32
2024-02-23T01:39:27.315Z,12.32
2024-02-23T01:40:27.942Z,12.30
2024-02-23T01:41:27.438Z,12.30
2024-02-23T01:42:27.236Z,12.29
2024-02-23T01:43:27.174Z,12.26
2024-02-23T01:44:27.290Z,12.21
2024-02-23T01:45:27.314Z,12.23
2024-02-23T01:46:27.326Z,12.33
2024-02-23T01:47:27.353Z,12.26
2024-02-23T01:48:27.328Z,12.23
2024-02-23T01:49:27.335Z,12.21
2024-02-23T01:50:27.186Z,12.15
2024-02-23T01:51:27.271Z,12.11
2024-02-23T01:52:27.144Z,12.13
2024-02-23T01:53:27.696Z,12.18
2024-02-23T01:54:27.145Z,12.15
2024-02-23T01:55:27.215Z,12.11
2024-02-23T01:56:27.243Z,11.99
2024-02-23T01:57:40.181Z,11.91
2024-02-23T01:58:27.231Z,11.91
2024-02-23T01:59:26.996Z,11.87
2024-02-23T02:00:27.228Z,11.76
2024-02-23T02:01:27.086Z,11.74
2024-02-23T02:02:27.897Z,11.73
2024-02-23T02:03:26.963Z,11.69
2024-02-23T02:04:27.056Z,11.66
2024-02-23T02:05:27.114Z,11.58
2024-02-23T02:06:27.298Z,11.58
2024-02-23T02:07:27.099Z,11.51
2024-02-23T02:08:27.038Z,11.45
2024-02-23T02:09:27.071Z,11.46
2024-02-23T02:10:27.466Z,11.49
2024-02-23T02:11:27.103Z,11.41
2024-02-23T02:12:26.928Z,11.37
2024-02-23T02:13:28.182Z,11.28
2024-02-23T02:14:27.571Z,11.20
2024-02-23T02:15:26.854Z,11.25
2024-02-23T02:16:26.944Z,11.18
2024-02-23T02:17:26.910Z,11.16
2024-02-23T02:18:27.589Z,11.20
2024-02-23T02:19:26.954Z,11.22
2024-02-23T02:20:27.037Z,11.19
2024-02-23T02:21:26.816Z,11.15
2024-02-23T02:22:27.056Z,11.11
2024-02-23T02:23:27.728Z,11.18
2024-02-23T02:24:27.050Z,11.12
2024-02-23T02:25:26.789Z,11.09
2024-02-23T02:26:26.776Z,11.01
2024-02-23T02:27:26.850Z,10.98
2024-02-23T02:28:26.698Z,10.97
2024-02-23T02:29:26.844Z,10.94
2024-02-23T02:30:27.456Z,10.86
2024-02-23T02:31:26.677Z,10.79
2024-02-23T02:32:26.769Z,10.82
2024-02-23T02:33:26.719Z,10.83
2024-02-23T02:34:26.793Z,10.86
2024-02-23T02:35:27.290Z,10.80
2024-02-23T02:36:27.521Z,10.85
2024-02-23T02:37:26.681Z,10.79
2024-02-23T02:38:26.739Z,10.75
2024-02-23T02:39:26.662Z,10.70
2024-02-23T02:40:26.658Z,10.64
2024-02-23T02:41:28.231Z,10.68
2024-02-23T02:42:27.985Z,10.73
2024-02-23T02:43:26.512Z,10.76
2024-02-23T02:44:26.604Z,10.75
2024-02-23T02:45:26.524Z,10.65
2024-02-23T02:46:26.698Z,10.58
2024-02-23T02:47:26.665Z,10.55
2024-02-23T02:48:26.633Z,10.54
2024-02-23T02:49:26.488Z,10.55
2024-02-23T02:50:26.946Z,10.54
2024-02-23T02:51:26.494Z,10.54
2024-02-23T02:52:26.496Z,10.55
2024-02-23T02:53:26.598Z,10.57
2024-02-23T02:54:26.422Z,10.60
2024-02-23T02:55:26.450Z,10.57
2024-02-23T02:56:26.614Z,10.45
2024-02-23T02:57:27.383Z,10.45
2024-02-23T02:58:26.378Z,10.43
2024-02-23T02:59:28.608Z,10.41
2024-02-23T03:00:26.397Z,10.41
2024-02-23T03:01:26.527Z,10.36
2024-02-23T03:02:26.671Z,10.35
2024-02-23T03:03:26.384Z,10.41
2024-02-23T03:04:26.382Z,10.35
2024-02-23T03:05:26.571Z,10.36
2024-02-23T03:06:26.320Z,10.38
2024-02-23T03:07:26.338Z,10.36
2024-02-23T03:08:26.855Z,10.45
2024-02-23T03:09:26.415Z,10.45
2024-02-23T03:10:26.436Z,10.41
2024-02-23T03:11:26.537Z,10.46
2024-02-23T03:12:26.266Z,10.49
2024-02-23T03:13:26.306Z,10.46
2024-02-23T03:14:26.483Z,10.55
2024-02-23T03:15:26.310Z,10.46
2024-02-23T03:16:26.530Z,10.38
2024-02-23T03:17:27.235Z,10.36
2024-02-23T03:18:26.891Z,10.34
2024-02-23T03:19:26.253Z,10.31
2024-02-23T03:20:26.326Z,10.27
2024-02-23T03:21:26.369Z,10.28
2024-02-23T03:22:26.675Z,10.31
2024-02-23T03:23:26.295Z,10.36
2024-02-23T03:24:26.101Z,10.34
2024-02-23T03:25:27.118Z,10.30
2024-02-23T03:26:26.163Z,10.30
2024-02-23T03:27:26.138Z,10.26
2024-02-23T03:28:26.215Z,10.24
2024-02-23T03:29:26.199Z,10.36
2024-02-23T03:30:26.063Z,10.39
2024-02-23T03:31:26.055Z,10.52
2024-02-23T03:32:26.111Z,10.52
2024-02-23T03:33:26.231Z,10.41
2024-02-23T03:34:26.358Z,10.34
2024-02-23T03:35:26.165Z,10.31
2024-02-23T03:36:26.069Z,10.24
2024-02-23T03:37:25.966Z,10.23
2024-02-23T03:38:27.025Z,10.26
2024-02-23T03:39:25.977Z,10.23
2024-02-23T03:40:26.385Z,10.26
2024-02-23T03:41:26.215Z,10.18
2024-02-23T03:42:25.936Z,10.17
2024-02-23T03:43:25.986Z,10.16
2024-02-23T03:44:26.145Z,10.21
2024-02-23T03:45:25.926Z,10.17
2024-02-23T03:46:26.133Z,10.16
2024-02-23T03:47:26.605Z,10.09
2024-02-23T03:48:25.892Z,10.05
2024-02-23T03:49:25.801Z,10.05
2024-02-23T03:50:25.947Z,10.03
2024-02-23T03:51:25.904Z,10.03
2024-02-23T03:52:25.903Z,10.06
2024-02-23T03:53:25.814Z,10.09
2024-02-23T03:54:25.758Z,10.14
2024-02-23T03:55:25.903Z,10.16
2024-02-23T03:56:25.915Z,10.18
2024-02-23T03:57:25.844Z,10.14
2024-02-23T03:58:25.823Z,10.14
2024-02-23T03:59:25.856Z,10.20
2024-02-23T04:00:26.526Z,10.17
2024-02-23T04:01:25.761Z,10.12
2024-02-23T04:02:25.796Z,10.08
2024-02-23T04:03:26.065Z,9.99
2024-02-23T04:04:25.882Z,10.02
2024-02-23T04:05:25.857Z,10.05
2024-02-23T04:06:25.851Z,9.98
2024-02-23T04:07:25.880Z,9.98
2024-02-23T04:08:25.703Z,10.06
2024-02-23T04:09:25.680Z,10.10
2024-02-23T04:10:25.804Z,10.14
2024-02-23T04:11:25.912Z,10.10
2024-02-23T04:12:25.819Z,10.03
2024-02-23T04:13:25.625Z,10.06
2024-02-23T04:14:26.431Z,10.09
2024-02-23T04:15:25.635Z,10.06
2024-02-23T04:16:25.573Z,10.10
2024-02-23T04:17:26.456Z,10.09
2024-02-23T04:18:25.586Z,10.06
2024-02-23T04:19:25.779Z,9.99
2024-02-23T04:20:25.579Z,10.05
2024-02-23T04:21:25.557Z,9.99
2024-02-23T04:22:25.520Z,9.94
2024-02-23T04:23:25.677Z,10.02
2024-02-23T04:24:27.034Z,10.06
2024-02-23T04:25:25.447Z,10.02
2024-02-23T04:26:25.737Z,10.01
2024-02-23T04:27:25.560Z,10.05
2024-02-23T04:28:25.529Z,10.05
2024-02-23T04:29:25.503Z,10.05
2024-02-23T04:30:25.378Z,9.99
2024-02-23T04:31:25.474Z,9.91
2024-02-23T04:32:25.470Z,10.01
2024-02-23T04:33:26.041Z,9.98
2024-02-23T04:34:25.402Z,9.94
2024-02-23T04:35:25.436Z,9.94
2024-02-23T04:36:25.479Z,9.94
2024-02-23T04:37:25.401Z,9.99
2024-02-23T04:38:25.320Z,10.05
2024-02-23T04:39:25.541Z,10.03
2024-02-23T04:40:25.421Z,9.96
2024-02-23T04:41:25.542Z,9.88
2024-02-23T04:42:25.233Z,9.85
2024-02-23T04:43:25.390Z,9.84
2024-02-23T04:44:25.376Z,9.85
2024-02-23T04:45:25.328Z,9.87
2024-02-23T04:46:25.364Z,9.88
2024-02-23T04:47:25.581Z,9.84
2024-02-23T04:48:25.284Z,9.87
2024-02-23T04:49:25.588Z,9.84
2024-02-23T04:50:25.317Z,9.80
2024-02-23T04:51:25.606Z,9.72
2024-02-23T04:52:26.151Z,9.66
2024-02-23T04:53:25.373Z,9.67
2024-02-23T04:54:25.361Z,9.73
2024-02-23T04:55:25.353Z,9.70
2024-02-23T04:56:25.247Z,9.62
2024-02-23T04:57:25.292Z,9.54
2024-02-23T04:58:25.782Z,9.52
2024-02-23T04:59:25.222Z,9.54
2024-02-23T05:00:25.103Z,9.59
2024-02-23T05:01:25.751Z,9.55
2024-02-23T05:02:25.165Z,9.50
2024-02-23T05:03:25.066Z,9.47
2024-02-23T05:04:25.231Z,9.40
2024-02-23T05:05:25.048Z,9.32
2024-02-23T05:06:25.078Z,9.23
2024-02-23T05:07:25.247Z,9.26
2024-02-23T05:08:25.055Z,9.23
2024-02-23T05:09:24.993Z,9.22
2024-02-23T05:10:25.184Z,9.19
2024-02-23T05:11:25.047Z,9.15
2024-02-23T05:12:25.054Z,9.11
2024-02-23T05:13:24.999Z,9.08
2024-02-23T05:14:25.153Z,9.03
2024-02-23T05:15:24.991Z,8.96
2024-02-23T05:16:25.483Z,8.88
2024-02-23T05:17:25.013Z,8.83
2024-02-23T05:18:24.958Z,8.81
2024-02-23T05:19:24.972Z,8.75
2024-02-23T05:20:25.383Z,8.72
2024-02-23T05:21:24.872Z,8.68
2024-02-23T05:22:24.968Z,8.60
2024-02-23T05:23:24.903Z,8.55
2024-02-23T05:24:24.917Z,8.49
2024-02-23T05:25:24.834Z,8.49
2024-02-23T05:26:24.932Z,8.52
2024-02-23T05:27:24.974Z,8.55
2024-02-23T05:28:24.965Z,8.53
2024-02-23T05:29:24.893Z,8.46
2024-02-23T05:30:24.956Z,8.44
2024-02-23T05:31:24.922Z,8.46
2024-02-23T05:32:24.873Z,8.44
2024-02-23T05:33:25.201Z,8.41
2024-02-23T05:34:24.868Z,8.42
2024-02-23T05:35:24.815Z,8.42
2024-02-23T05:36:24.893Z,8.38
2024-02-23T05:37:24.783Z,8.34
2024-02-23T05:38:24.680Z,8.42
2024-02-23T05:39:24.692Z,8.37
2024-02-23T05:40:24.605Z,8.31
2024-02-23T05:41:24.827Z,8.23
2024-02-23T05:42:24.882Z,8.28
2024-02-23T05:43:24.604Z,8.34
2024-02-23T05:44:24.727Z,8.32
2024-02-23T05:45:24.891Z,8.26
2024-02-23T05:46:24.656Z,8.21
2024-02-23T05:47:24.776Z,8.23
2024-02-23T05:48:25.531Z,8.28
2024-02-23T05:49:24.559Z,8.26
2024-02-23T05:50:24.684Z,8.28
2024-02-23T05:51:25.437Z,8.26
2024-02-23T05:52:24.736Z,8.24
2024-02-23T05:53:24.739Z,8.19
2024-02-23T05:54:24.724Z,8.16
2024-02-23T05:55:24.530Z,8.14
2024-02-23T05:56:24.775Z,8.16
2024-02-23T05:57:24.630Z,8.14
2024-02-23T05:58:24.449Z,8.21
2024-02-23T05:59:24.648Z,8.17
2024-02-23T06:00:24.469Z,8.19
2024-02-23T06:01:24.516Z,8.19
2024-02-23T06:02:25.208Z,8.17
2024-02-23T06:03:24.484Z,8.19
2024-02-23T06:04:24.407Z,8.19
2024-02-23T06:05:25.918Z,8.23
2024-02-23T06:06:24.724Z,8.29
2024-02-23T06:07:24.346Z,8.24
2024-02-23T06:08:24.369Z,8.19
2024-02-23T06:09:24.365Z,8.16
2024-02-23T06:10:24.261Z,8.14
2024-02-23T06:11:24.430Z,8.12
2024-02-23T06:12:24.296Z,8.06
2024-02-23T06:13:24.954Z,8.01
2024-02-23T06:14:24.268Z,7.96
2024-02-23T06:15:24.239Z,7.88
2024-02-23T06:16:24.506Z,7.84
2024-02-23T06:17:24.264Z,7.83
2024-02-23T06:18:24.382Z,7.77
2024-02-23T06:19:24.313Z,7.76
2024-02-23T06:20:25.293Z,7.74
2024-02-23T06:21:24.523Z,7.73
2024-02-23T06:22:24.310Z,7.73
2024-02-23T06:23:24.442Z,7.68
2024-02-23T06:24:24.179Z,7.69
2024-02-23T06:25:24.272Z,7.77
2024-02-23T06:26:24.138Z,7.74
2024-02-23T06:27:24.282Z,7.74
2024-02-23T06:28:24.053Z,7.73
2024-02-23T06:29:24.532Z,7.74
2024-02-23T06:30:24.168Z,7.74
2024-02-23T06:31:24.074Z,7.81
2024-02-23T06:32:24.259Z,7.83
2024-02-23T06:33:24.211Z,7.78
2024-02-23T06:34:24.050Z,7.74
2024-02-23T06:35:24.076Z,7.78
2024-02-23T06:36:24.031Z,7.80
2024-02-23T06:37:24.132Z,7.78
2024-02-23T06:38:26.939Z,7.80
2024-02-23T06:39:24.001Z,7.83
2024-02-23T06:40:25.324Z,7.83
2024-02-23T06:41:23.979Z,7.84
2024-02-23T06:42:23.978Z,7.91
2024-02-23T06:43:23.970Z,7.96
2024-02-23T06:44:24.099Z,7.98
2024-02-23T06:45:24.104Z,7.98
2024-02-23T06:46:23.907Z,7.99
2024-02-23T06:47:23.945Z,8.02
2024-02-23T06:48:24.993Z,8.02
2024-02-23T06:49:24.250Z,8.04
2024-02-23T06:50:24.081Z,8.05
2024-02-23T06:51:23.897Z,8.09
2024-02-23T06:52:24.354Z,8.13
2024-02-23T06:53:25.471Z,8.16
2024-02-23T06:54:24.808Z,8.16
2024-02-23T06:55:24.366Z,8.14
2024-02-23T06:56:23.930Z,8.17
2024-02-23T06:57:23.991Z,8.20
2024-02-23T06:58:23.883Z,8.19
2024-02-23T06:59:24.066Z,8.16
2024-02-23T07:00:23.804Z,8.16
2024-02-23T07:01:23.841Z,8.14
2024-02-23T07:02:23.813Z,8.12
2024-02-23T07:03:23.722Z,8.16
2024-02-23T07:04:23.870Z,8.19
2024-02-23T07:05:24.056Z,8.17
2024-02-23T07:06:24.249Z,8.16
2024-02-23T07:07:27.282Z,8.19
2024-02-23T07:08:24.010Z,8.20
2024-02-23T07:09:23.691Z,8.20
2024-02-23T07:10:23.787Z,8.17
2024-02-23T07:11:23.752Z,8.17
2024-02-23T07:12:23.752Z,8.17
2024-02-23T07:13:23.773Z,8.17
2024-02-23T07:14:23.781Z,8.19
2024-02-23T07:15:24.187Z,8.14
2024-02-23T07:16:23.616Z,8.13
2024-02-23T07:17:24.306Z,8.12
2024-02-23T07:18:24.985Z,8.12
2024-02-23T07:19:25.195Z,8.14
2024-02-23T07:20:23.555Z,8.17
2024-02-23T07:21:24.074Z,8.20
2024-02-23T07:22:23.679Z,8.20
2024-02-23T07:23:23.919Z,8.17
2024-02-23T07:24:23.530Z,8.20
2024-02-23T07:25:23.451Z,8.19
2024-02-23T07:26:23.648Z,8.20
2024-02-23T07:27:23.441Z,8.20
2024-02-23T07:28:24.367Z,8.24
2024-02-23T07:29:23.494Z,8.26
2024-02-23T07:30:23.602Z,8.28
2024-02-23T07:31:24.258Z,8.29
2024-02-23T07:32:24.393Z,8.32
2024-02-23T07:33:23.487Z,8.26
2024-02-23T07:34:23.508Z,8.28
2024-02-23T07:35:23.711Z,8.28
2024-02-23T07:36:23.361Z,8.28
2024-02-23T07:37:24.238Z,8.31
2024-02-23T07:38:23.771Z,8.32
2024-02-23T07:39:23.497Z,8.32
2024-02-23T07:40:23.620Z,8.34
2024-02-23T07:41:23.855Z,8.37
2024-02-23T07:42:23.239Z,8.37
2024-02-23T07:43:24.286Z,8.37
2024-02-23T07:44:23.430Z,8.42
2024-02-23T07:45:23.321Z,8.42
2024-02-23T07:46:25.090Z,8.42
2024-02-23T07:47:23.545Z,8.44
2024-02-23T07:48:23.440Z,8.47
2024-02-23T07:49:23.259Z,8.50
2024-02-23T07:50:23.246Z,8.52
2024-02-23T07:51:23.871Z,8.50
2024-02-23T07:52:23.977Z,8.53
2024-02-23T07:53:23.487Z,8.57
2024-02-23T07:54:23.458Z,8.60
2024-02-23T07:55:23.162Z,8.65
2024-02-23T07:56:23.330Z,8.63
2024-02-23T07:57:23.832Z,8.67
2024-02-23T07:58:23.163Z,8.77
2024-02-23T07:59:23.263Z,8.85
2024-02-23T08:00:25.919Z,8.89
2024-02-23T08:01:23.178Z,8.92
2024-02-23T08:02:23.129Z,8.93
2024-02-23T08:03:23.056Z,8.92
2024-02-23T08:04:23.880Z,8.90
2024-02-23T08:05:23.146Z,8.92
2024-02-23T08:06:23.085Z,8.93
2024-02-23T08:07:23.020Z,8.96
2024-02-23T08:08:23.039Z,8.99
2024-02-23T08:09:23.056Z,8.92
2024-02-23T08:10:23.019Z,8.90
2024-02-23T08:11:23.297Z,8.86
2024-02-23T08:12:23.024Z,8.92
2024-02-23T08:13:23.042Z,8.96
2024-02-23T08:14:23.230Z,8.99
2024-02-23T08:15:22.956Z,9.04
2024-02-23T08:16:22.899Z,9.01
2024-02-23T08:17:23.110Z,9.01
2024-02-23T08:18:25.146Z,9.06
2024-02-23T08:19:23.025Z,9.03
2024-02-23T08:20:22.927Z,9.06
2024-02-23T08:21:22.969Z,9.08
2024-02-23T08:22:22.959Z,9.08
2024-02-23T08:23:22.888Z,9.11
2024-02-23T08:24:23.193Z,9.12
2024-02-23T08:25:22.879Z,9.11
2024-02-23T08:26:23.701Z,9.12
2024-02-23T08:27:22.886Z,9.06
2024-02-23T08:28:22.924Z,9.08
2024-02-23T08:29:24.142Z,9.12
2024-02-23T08:30:22.809Z,9.16
2024-02-23T08:31:22.806Z,9.16
2024-02-23T08:32:22.762Z,9.19
2024-02-23T08:33:22.733Z,9.19
2024-02-23T08:34:23.446Z,9.26
2024-02-23T08:35:22.830Z,9.27
2024-02-23T08:36:22.855Z,9.24
2024-02-23T08:37:22.737Z,9.27
2024-02-23T08:38:22.994Z,9.32
2024-02-23T08:39:22.819Z,9.36
2024-02-23T08:40:22.890Z,9.42
2024-02-23T08:41:22.746Z,9.48
2024-02-23T08:42:23.621Z,9.47
2024-02-23T08:43:22.699Z,9.44
2024-02-23T08:44:22.875Z,9.44
2024-02-23T08:45:22.619Z,9.47
2024-02-23T08:46:22.637Z,9.52
2024-02-23T08:47:22.662Z,9.47
2024-02-23T08:48:22.866Z,9.33
2024-02-23T08:49:22.678Z,9.33
2024-02-23T08:50:22.859Z,9.44
2024-02-23T08:51:23.416Z,9.52
2024-02-23T08:52:22.659Z,9.54
2024-02-23T08:53:22.555Z,9.50
2024-02-23T08:54:22.543Z,9.59
2024-02-23T08:55:22.488Z,9.69
2024-02-23T08:56:22.648Z,9.81
2024-02-23T08:57:22.684Z,9.88
2024-02-23T08:58:22.451Z,9.93
2024-02-23T08:59:22.465Z,9.96
2024-02-23T09:00:22.533Z,9.93
2024-02-23T09:01:24.211Z,9.90
2024-02-23T09:02:22.479Z,9.90
2024-02-23T09:03:22.481Z,9.98
2024-02-23T09:04:23.177Z,10.02
2024-02-23T09:05:22.907Z,9.94
2024-02-23T09:06:22.629Z,9.88
2024-02-23T09:07:22.733Z,9.85
2024-02-23T09:08:22.404Z,9.81
2024-02-23T09:09:22.415Z,9.87
2024-02-23T09:10:22.440Z,9.90
2024-02-23T09:11:22.451Z,9.85
2024-02-23T09:12:22.633Z,9.75
2024-02-23T09:13:22.363Z,9.81
2024-02-23T09:14:22.500Z,9.88
2024-02-23T09:15:23.202Z,9.98
2024-02-23T09:16:22.317Z,9.99
2024-02-23T09:17:22.280Z,10.02
2024-02-23T09:18:23.052Z,10.03
2024-02-23T09:19:22.609Z,10.12
2024-02-23T09:20:22.308Z,10.20
2024-02-23T09:21:22.396Z,10.09
2024-02-23T09:22:22.228Z,10.06
2024-02-23T09:23:22.318Z,10.14
2024-02-23T09:24:23.113Z,10.17
2024-02-23T09:25:22.427Z,10.20
2024-02-23T09:26:22.253Z,10.14
2024-02-23T09:27:22.833Z,10.05
2024-02-23T09:28:22.256Z,10.05
2024-02-23T09:29:22.332Z,10.12
2024-02-23T09:30:22.144Z,10.10
2024-02-23T09:31:22.114Z,10.21
2024-02-23T09:32:22.175Z,10.30
2024-02-23T09:33:22.171Z,10.34
2024-02-23T09:34:22.275Z,10.30
2024-02-23T09:35:22.128Z,10.30
2024-02-23T09:36:22.682Z,10.28
2024-02-23T09:37:22.529Z,10.34
2024-02-23T09:38:22.523Z,10.39
2024-02-23T09:39:22.015Z,10.45
2024-02-23T09:40:22.264Z,10.46
2024-02-23T09:41:22.066Z,10.52
2024-02-23T09:42:22.188Z,10.52
2024-02-23T09:43:23.129Z,10.38
2024-02-23T09:44:22.168Z,10.28
2024-02-23T09:45:22.114Z,10.27
2024-02-23T09:46:22.171Z,10.27
2024-02-23T09:47:26.614Z,10.18
2024-02-23T09:48:22.103Z,10.06
2024-02-23T09:49:23.005Z,9.99
2024-02-23T09:50:22.104Z,10.01
2024-02-23T09:51:21.877Z,9.99
2024-02-23T09:52:21.938Z,10.03
2024-02-23T09:53:22.770Z,10.09
2024-02-23T09:54:22.034Z,10.08
2024-02-23T09:56:39.805Z,10.28
2024-02-23T09:57:40.572Z,10.26
2024-02-23T09:58:39.536Z,10.26
2024-02-23T09:59:40.121Z,10.27
2024-02-23T10:00:39.610Z,10.34
2024-02-23T10:01:40.035Z,10.41
2024-02-23T10:02:39.516Z,10.45
2024-02-23T10:03:39.531Z,10.42
2024-02-23T10:04:39.508Z,10.41
2024-02-23T10:05:42.310Z,10.45
2024-02-23T10:06:40.573Z,10.52
2024-02-23T10:07:39.462Z,10.55
2024-02-23T10:08:39.475Z,10.55
2024-02-23T10:09:39.568Z,10.57
2024-02-23T10:10:40.105Z,10.54
2024-02-23T10:11:39.424Z,10.45
2024-02-23T10:12:39.417Z,10.45
2024-02-23T10:13:39.460Z,10.41
2024-02-23T10:14:39.496Z,10.46
2024-02-23T10:15:41.559Z,10.55
2024-02-23T10:16:39.394Z,10.57
2024-02-23T10:17:39.985Z,10.58
2024-02-23T10:18:39.540Z,10.58
2024-02-23T10:19:39.985Z,10.55
2024-02-23T10:20:39.528Z,10.48
2024-02-23T10:21:39.330Z,10.42
2024-02-23T10:22:40.087Z,10.45
2024-02-23T10:23:39.357Z,10.43
2024-02-23T10:24:39.247Z,10.43
2024-02-23T10:25:39.291Z,10.54
2024-02-23T10:26:39.286Z,10.55
2024-02-23T10:27:39.359Z,10.62
2024-02-23T10:28:40.090Z,10.72
2024-02-23T10:29:39.350Z,10.80
2024-02-23T10:30:39.316Z,10.80
2024-02-23T10:31:39.202Z,10.85
2024-02-23T10:32:39.216Z,10.91
2024-02-23T10:33:39.293Z,10.94
2024-02-23T10:34:40.233Z,10.98
2024-02-23T10:35:40.060Z,10.97
2024-02-23T10:36:40.175Z,10.86
2024-02-23T10:37:39.056Z,10.86
2024-02-23T10:38:40.469Z,10.90
2024-02-23T10:39:39.150Z,10.82
2024-02-23T10:40:39.476Z,10.79
2024-02-23T10:41:39.351Z,10.75
2024-02-23T10:42:39.044Z,10.72
2024-02-23T10:43:39.048Z,10.75
2024-02-23T10:44:39.363Z,10.70
2024-02-23T10:45:39.762Z,10.64
2024-02-23T10:46:39.203Z,10.62
2024-02-23T10:47:39.038Z,10.72
2024-02-23T10:48:39.253Z,10.82
2024-02-23T10:49:39.069Z,10.87
2024-02-23T10:50:38.957Z,10.93
2024-02-23T10:51:40.035Z,10.93
2024-02-23T10:52:38.993Z,10.94
2024-02-23T10:53:39.069Z,10.97
2024-02-23T10:54:39.832Z,10.95
2024-02-23T10:55:39.928Z,10.95
2024-02-23T10:56:39.050Z,11.01
2024-02-23T10:57:40.494Z,11.05
2024-02-23T10:58:38.856Z,11.19
2024-02-23T10:59:38.949Z,11.36
2024-02-23T11:00:39.752Z,11.38
2024-02-23T11:01:38.924Z,11.25
2024-02-23T11:02:38.881Z,11.25
2024-02-23T11:03:38.829Z,11.28
2024-02-23T11:04:39.086Z,11.28
2024-02-23T11:05:39.161Z,11.36
2024-02-23T11:06:39.077Z,11.41
2024-02-23T11:07:38.862Z,11.25
2024-02-23T11:08:38.896Z,11.08
2024-02-23T11:09:38.795Z,11.05
2024-02-23T11:10:39.473Z,11.04
2024-02-23T11:11:38.895Z,10.97
2024-02-23T11:12:38.701Z,10.95
2024-02-23T11:13:39.053Z,10.94
2024-02-23T11:14:39.111Z,11.03
2024-02-23T11:15:39.035Z,11.05
2024-02-23T11:16:38.802Z,11.13
2024-02-23T11:17:38.781Z,11.13
2024-02-23T11:18:38.681Z,11.19
2024-02-23T11:19:39.024Z,11.22
2024-02-23T11:20:38.890Z,11.05
2024-02-23T11:21:38.732Z,11.04
2024-02-23T11:22:40.028Z,11.03
2024-02-23T11:23:38.733Z,11.04
2024-02-23T11:24:38.572Z,11.12
2024-02-23T11:25:38.618Z,11.25
2024-02-23T11:26:39.143Z,11.18
2024-02-23T11:27:38.686Z,11.11
2024-02-23T11:28:38.979Z,10.98
2024-02-23T11:29:38.575Z,10.93
2024-02-23T11:30:40.556Z,11.01
2024-02-23T11:31:38.524Z,11.09
2024-02-23T11:32:38.536Z,11.16
2024-02-23T11:33:40.118Z,11.20
2024-02-23T11:34:39.624Z,11.27
2024-02-23T11:35:38.537Z,11.36
2024-02-23T11:36:39.033Z,11.40
2024-02-23T11:37:38.475Z,11.37
2024-02-23T11:38:38.546Z,11.37
2024-02-23T11:39:39.244Z,11.38
2024-02-23T11:40:38.435Z,11.37
2024-02-23T11:41:39.640Z,11.40
2024-02-23T11:42:38.691Z,11.38
2024-02-23T11:43:38.423Z,11.30
2024-02-23T11:44:38.524Z,11.22
2024-02-23T11:45:38.375Z,11.27
2024-02-23T11:46:38.399Z,11.31
2024-02-23T11:47:38.707Z,11.20
2024-02-23T11:48:38.533Z,11.15
2024-02-23T11:49:38.310Z,11.20
2024-02-23T11:50:38.650Z,11.30
2024-02-23T11:51:38.502Z,11.25
2024-02-23T11:52:39.055Z,11.27
2024-02-23T11:53:38.276Z,11.31
2024-02-23T11:54:39.040Z,11.33
2024-02-23T11:55:39.502Z,11.27
2024-02-23T11:56:38.391Z,11.12
2024-02-23T11:57:46.656Z,10.98
2024-02-23T11:58:38.278Z,10.91
2024-02-23T11:59:38.278Z,10.91
2024-02-23T12:00:38.254Z,10.94
2024-02-23T12:01:38.259Z,10.97
2024-02-23T12:02:38.210Z,11.03
2024-02-23T12:03:38.192Z,10.98
2024-02-23T12:04:39.030Z,10.94
2024-02-23T12:05:38.354Z,11.00
2024-02-23T12:06:38.135Z,10.93
2024-02-23T12:07:40.836Z,10.94
2024-02-23T12:08:38.595Z,10.94
2024-02-23T12:09:38.106Z,11.00
2024-02-23T12:10:38.135Z,10.97
2024-02-23T12:11:38.139Z,11.04
2024-02-23T12:12:38.081Z,11.09
2024-02-23T12:13:38.094Z,11.05
2024-02-23T12:14:39.625Z,11.03
2024-02-23T12:15:38.232Z,11.04
2024-02-23T12:16:38.107Z,11.00
2024-02-23T12:17:38.141Z,11.04
2024-02-23T12:18:38.070Z,11.04
2024-02-23T12:19:38.036Z,11.03
2024-02-23T12:20:38.262Z,11.01
2024-02-23T12:21:38.940Z,10.95
2024-02-23T12:22:37.955Z,10.97
2024-02-23T12:23:38.025Z,11.01
2024-02-23T12:24:37.988Z,10.90
2024-02-23T12:25:39.379Z,10.93
2024-02-23T12:26:37.997Z,10.93
2024-02-23T12:27:37.976Z,10.97
2024-02-23T12:28:37.901Z,11.03
2024-02-23T12:29:37.998Z,10.98
2024-02-23T12:30:37.907Z,10.98
2024-02-23T12:31:38.612Z,11.00
2024-02-23T12:32:37.939Z,11.01
2024-02-23T12:33:38.744Z,11.04
2024-02-23T12:34:37.949Z,10.93
2024-02-23T12:35:38.166Z,10.86
2024-02-23T12:36:37.877Z,10.94
2024-02-23T12:37:37.801Z,10.87
2024-02-23T12:38:38.104Z,10.87
2024-02-23T12:39:38.525Z,10.82
2024-02-23T12:40:37.798Z,10.90
2024-02-23T12:41:37.942Z,10.97
2024-02-23T12:42:37.761Z,11.05
2024-02-23T12:43:41.034Z,11.03
2024-02-23T12:44:37.868Z,10.93
2024-02-23T12:45:37.854Z,10.82
2024-02-23T12:46:37.845Z,10.79
2024-02-23T12:47:37.897Z,10.87
2024-02-23T12:48:37.804Z,10.95
2024-02-23T12:49:37.767Z,11.00
2024-02-23T12:50:37.694Z,11.05
2024-02-23T12:51:37.736Z,11.04
2024-02-23T12:52:37.693Z,11.03
2024-02-23T12:53:37.730Z,11.09
2024-02-23T12:54:37.700Z,11.08
2024-02-23T12:55:37.680Z,11.03
2024-02-23T12:56:37.673Z,11.00
2024-02-23T12:57:37.572Z,11.04
2024-02-23T12:58:37.571Z,11.16
2024-02-23T12:59:37.656Z,11.25
2024-02-23T13:00:37.548Z,11.31
2024-02-23T13:01:37.729Z,11.36
2024-02-23T13:02:38.108Z,11.34
2024-02-23T13:03:37.702Z,11.19